createdAt,value
2023-02-05T00:03:02.449Z,74.78
2023-02-05T00:08:04.229Z,74.89
2023-02-05T00:13:08.944Z,74.76
2023-02-05T00:18:10.636Z,75.10
2023-02-05T00:23:12.333Z,74.88
2023-02-05T00:28:14.367Z,74.90
2023-02-05T00:33:16.133Z,75.01
2023-02-05T00:38:17.975Z,75.36
2023-02-05T00:43:19.819Z,74.93
2023-02-05T00:48:21.525Z,75.23
2023-02-05T00:53:24.683Z,75.47
2023-02-05T00:58:27.041Z,75.18
2023-02-05T01:03:28.768Z,75.59
2023-02-05T01:08:30.974Z,75.36
2023-02-05T01:13:32.617Z,75.08
2023-02-05T01:18:34.247Z,75.25
2023-02-05T01:23:35.906Z,75.13
2023-02-05T01:28:37.608Z,75.23
2023-02-05T01:33:39.236Z,75.08
2023-02-05T01:38:40.846Z,75.30
2023-02-05T01:43:42.530Z,75.30
2023-02-05T01:48:48.667Z,75.44
2023-02-05T01:53:50.687Z,75.30
2023-02-05T01:59:02.736Z,75.28
2023-02-05T02:04:05.092Z,76.02
2023-02-05T02:09:08.565Z,75.58
2023-02-05T02:14:11.890Z,75.95
2023-02-05T02:19:45.329Z,75.84
2023-02-05T02:25:25.504Z,75.73
2023-02-05T02:30:35.099Z,76.16
2023-02-05T02:35:47.171Z,76.06
2023-02-05T02:40:54.508Z,76.40
2023-02-05T02:46:06.843Z,76.12
2023-02-05T02:51:11.304Z,76.13
2023-02-05T02:56:14.927Z,76.03
2023-02-05T03:01:21.428Z,75.96
2023-02-05T03:06:23.270Z,75.90
2023-02-05T03:11:27.020Z,76.16
2023-02-05T03:16:29.060Z,76.02
2023-02-05T03:21:36.608Z,75.98
2023-02-05T03:26:38.564Z,76.58
2023-02-05T03:32:28.283Z,76.37
2023-02-05T03:37:44.832Z,75.88
2023-02-05T03:43:30.121Z,76.22
2023-02-05T03:48:35.903Z,75.54
2023-02-05T03:54:00.398Z,75.75
2023-02-05T03:59:03.930Z,76.03
2023-02-05T04:04:05.901Z,76.03
2023-02-05T04:09:07.930Z,75.81
2023-02-05T04:14:10.090Z,76.20
2023-02-05T04:19:13.255Z,75.69
2023-02-05T04:24:15.366Z,75.91
2023-02-05T04:29:17.440Z,75.72
2023-02-05T04:34:21.947Z,75.59
2023-02-05T04:39:24.325Z,75.91
2023-02-05T04:44:25.968Z,76.00
2023-02-05T04:49:28.143Z,76.12
2023-02-05T04:54:29.871Z,75.50
2023-02-05T04:59:31.836Z,75.87
2023-02-05T05:04:33.579Z,75.99
2023-02-05T05:09:36.754Z,76.00
2023-02-05T05:14:38.657Z,76.03
2023-02-05T05:19:40.701Z,75.67
2023-02-05T05:24:42.304Z,75.61
2023-02-05T05:29:44.821Z,75.74
2023-02-05T05:34:46.564Z,75.48
2023-02-05T05:40:06.941Z,75.97
2023-02-05T05:45:08.941Z,75.73
2023-02-05T05:50:10.582Z,76.12
2023-02-05T05:55:12.447Z,76.07
2023-02-05T06:00:14.718Z,75.97
2023-02-05T06:05:16.609Z,75.89
2023-02-05T06:10:18.358Z,75.83
2023-02-05T06:15:20.001Z,75.38
2023-02-05T06:20:21.921Z,75.88
2023-02-05T06:25:23.667Z,75.79
2023-02-05T06:30:25.395Z,75.95
2023-02-05T06:35:27.123Z,76.15
2023-02-05T06:40:29.148Z,75.79
2023-02-05T06:45:30.873Z,76.09
2023-02-05T06:50:32.576Z,75.64
2023-02-05T06:55:34.556Z,76.02
2023-02-05T07:00:36.345Z,76.38
2023-02-05T07:05:37.928Z,76.45
2023-02-05T07:10:39.698Z,75.87
2023-02-05T07:15:41.408Z,75.98
2023-02-05T07:20:43.121Z,76.24
2023-02-05T07:25:45.074Z,76.58
2023-02-05T07:30:47.844Z,76.53
2023-02-05T07:35:49.510Z,76.53
2023-02-05T07:40:51.533Z,76.97
2023-02-05T07:46:01.161Z,76.64
2023-02-05T07:51:03.138Z,76.61
2023-02-05T07:56:05.115Z,76.86
2023-02-05T08:01:07.483Z,77.62
2023-02-05T08:06:13.972Z,77.57
2023-02-05T08:11:17.228Z,77.76
2023-02-05T08:16:19.060Z,77.54
2023-02-05T08:21:21.821Z,77.69
2023-02-05T08:26:23.486Z,77.55
2023-02-05T08:31:26.153Z,77.79
2023-02-05T08:36:28.952Z,77.94
2023-02-05T08:41:30.631Z,77.86
2023-02-05T08:46:47.566Z,77.84
2023-02-05T08:51:51.445Z,78.26
2023-02-05T08:56:53.105Z,78.28
2023-02-05T09:01:54.836Z,78.70
2023-02-05T09:06:56.709Z,78.61
2023-02-05T09:11:58.738Z,78.39
2023-02-05T09:17:00.313Z,78.43
2023-02-05T09:22:02.229Z,78.68
2023-02-05T09:27:06.344Z,79.05
2023-02-05T09:32:08.477Z,78.67
2023-02-05T09:37:10.385Z,78.35
2023-02-05T09:42:27.814Z,77.70
2023-02-05T09:47:37.699Z,77.81
2023-02-05T09:52:44.878Z,76.76
2023-02-05T09:57:46.679Z,76.07
2023-02-05T10:03:01.125Z,75.47
2023-02-05T10:08:26.860Z,74.82
2023-02-05T10:13:35.420Z,74.37
2023-02-05T10:19:08.456Z,73.75
2023-02-05T10:24:48.421Z,72.75
2023-02-05T10:30:12.516Z,72.09
2023-02-05T10:35:48.573Z,71.65
2023-02-05T10:40:54.783Z,71.64
2023-02-05T10:45:58.210Z,71.93
2023-02-05T10:51:03.388Z,71.60
2023-02-05T10:56:06.185Z,71.01
2023-02-05T11:01:12.492Z,70.13
2023-02-05T11:06:14.362Z,70.51
2023-02-05T11:11:28.762Z,69.65
2023-02-05T11:16:40.889Z,69.65
2023-02-05T11:21:47.806Z,69.49
2023-02-05T11:26:49.614Z,69.68
2023-02-05T11:31:51.917Z,68.87
2023-02-05T11:36:56.991Z,68.70
2023-02-05T11:42:09.495Z,67.96
2023-02-05T11:47:11.229Z,67.77
2023-02-05T11:52:15.183Z,67.85
2023-02-05T11:57:19.967Z,68.40
2023-02-05T12:02:30.682Z,68.57
2023-02-05T12:07:58.530Z,68.58
2023-02-05T12:13:09.156Z,68.77
2023-02-05T12:18:38.297Z,69.05
2023-02-05T12:24:30.821Z,68.71
2023-02-05T12:29:35.447Z,68.68
2023-02-05T12:34:56.046Z,69.02
2023-02-05T12:40:03.523Z,68.80
2023-02-05T12:45:17.456Z,68.49
2023-02-05T12:50:54.560Z,68.23
2023-02-05T12:56:40.662Z,67.85
2023-02-05T13:01:45.229Z,67.88
2023-02-05T13:06:56.560Z,68.23
2023-02-05T13:12:04.982Z,68.19
2023-02-05T13:17:19.500Z,68.62
2023-02-05T13:22:43.828Z,69.05
2023-02-05T13:28:11.649Z,69.58
2023-02-05T13:33:14.639Z,69.78
2023-02-05T13:39:01.580Z,69.97
2023-02-05T13:44:39.600Z,70.32
2023-02-05T13:50:04.619Z,70.67
2023-02-05T13:55:26.551Z,71.10
2023-02-05T14:00:29.282Z,71.29
2023-02-05T14:05:36.040Z,71.95
2023-02-05T14:10:43.261Z,72.15
2023-02-05T14:15:45.254Z,72.11
2023-02-05T14:20:46.962Z,72.37
2023-02-05T14:26:06.403Z,73.02
2023-02-05T14:31:08.136Z,73.06
2023-02-05T14:36:20.888Z,73.32
2023-02-05T14:41:40.101Z,73.79
2023-02-05T14:46:46.247Z,74.28
2023-02-05T14:52:00.485Z,74.34
2023-02-05T14:57:11.149Z,74.74
2023-02-05T15:02:50.565Z,74.98
2023-02-05T15:08:00.128Z,75.01
2023-02-05T15:13:09.020Z,75.26
2023-02-05T15:18:24.170Z,75.44
2023-02-05T15:23:43.884Z,75.55
2023-02-05T15:28:56.102Z,75.85
2023-02-05T15:34:00.252Z,76.19
2023-02-05T15:39:31.481Z,76.64
2023-02-05T15:44:35.633Z,76.80
2023-02-05T15:49:43.135Z,76.97
2023-02-05T15:54:45.268Z,77.56
2023-02-05T15:59:47.260Z,77.80
2023-02-05T16:04:55.586Z,78.08
2023-02-05T16:09:59.557Z,78.29
2023-02-05T16:15:04.737Z,78.59
2023-02-05T16:20:18.524Z,79.01
2023-02-05T16:25:28.022Z,79.47
2023-02-05T16:30:51.958Z,79.60
2023-02-05T16:35:54.243Z,79.94
2023-02-05T16:41:00.213Z,80.10
2023-02-05T16:46:08.074Z,80.06
2023-02-05T16:51:32.467Z,80.36
2023-02-05T16:56:37.989Z,80.48
2023-02-05T17:01:43.608Z,80.73
2023-02-05T17:06:45.392Z,80.98
2023-02-05T17:11:47.123Z,81.12
2023-02-05T17:17:00.941Z,81.59
2023-02-05T17:22:14.581Z,81.37
2023-02-05T17:27:21.029Z,81.66
2023-02-05T17:32:23.867Z,81.77
2023-02-05T17:37:25.826Z,82.04
2023-02-05T17:42:29.836Z,82.03
2023-02-05T17:47:31.519Z,81.86
2023-02-05T17:52:33.251Z,81.95
2023-02-05T17:57:36.404Z,82.24
2023-02-05T18:02:38.031Z,81.98
2023-02-05T18:07:49.514Z,82.08
2023-02-05T18:12:52.207Z,82.10
2023-02-05T18:17:53.912Z,82.27
2023-02-05T18:22:55.749Z,82.71
2023-02-05T18:27:57.572Z,82.76
2023-02-05T18:32:59.302Z,83.06
2023-02-05T18:38:00.942Z,83.29
2023-02-05T18:43:02.688Z,83.24
2023-02-05T18:48:04.367Z,83.00
2023-02-05T18:53:06.578Z,83.00
2023-02-05T18:58:08.397Z,82.83
2023-02-05T19:03:10.073Z,83.39
2023-02-05T19:08:11.820Z,82.97
2023-02-05T19:13:13.444Z,83.23
2023-02-05T19:18:16.062Z,83.67
2023-02-05T19:23:17.685Z,83.47
2023-02-05T19:28:19.825Z,83.30
2023-02-05T19:33:21.636Z,83.31
2023-02-05T19:38:23.260Z,83.18
2023-02-05T19:43:24.946Z,82.75
2023-02-05T19:48:28.862Z,82.54
2023-02-05T19:53:30.878Z,82.40
2023-02-05T19:58:34.276Z,81.96
2023-02-05T20:03:35.945Z,81.71
2023-02-05T20:08:38.109Z,81.81
2023-02-05T20:13:40.978Z,81.49
2023-02-05T20:18:43.363Z,81.44
2023-02-05T20:23:45.959Z,81.17
2023-02-05T20:29:11.387Z,80.77
2023-02-05T20:34:18.711Z,80.43
2023-02-05T20:39:22.009Z,80.36
2023-02-05T20:44:25.539Z,80.24
2023-02-05T20:49:27.200Z,79.83
2023-02-05T20:54:28.785Z,79.47
2023-02-05T20:59:36.537Z,79.43
2023-02-05T21:04:38.303Z,79.81
2023-02-05T21:09:40.023Z,79.38
2023-02-05T21:14:41.850Z,79.47
2023-02-05T21:19:43.527Z,79.64
2023-02-05T21:24:45.136Z,79.52
2023-02-05T21:29:48.963Z,79.24
2023-02-05T21:34:50.735Z,79.24
2023-02-05T21:39:53.011Z,79.05
2023-02-05T21:44:56.860Z,78.69
2023-02-05T21:49:58.513Z,78.79
2023-02-05T21:55:00.428Z,78.82
2023-02-05T22:00:04.110Z,78.91
2023-02-05T22:05:15.248Z,79.06
2023-02-05T22:10:16.872Z,78.79
2023-02-05T22:15:18.557Z,78.73
2023-02-05T22:20:20.213Z,78.84
2023-02-05T22:25:21.813Z,78.85
2023-02-05T22:30:23.640Z,78.75
2023-02-05T22:35:25.338Z,78.46
2023-02-05T22:40:27.411Z,78.58
2023-02-05T22:45:31.310Z,78.39
2023-02-05T22:50:36.767Z,78.28
2023-02-05T22:55:39.901Z,78.30
2023-02-05T23:00:41.594Z,78.34
2023-02-05T23:05:43.239Z,78.48
2023-02-05T23:10:45.010Z,78.19
2023-02-05T23:15:46.709Z,78.43
2023-02-05T23:20:48.661Z,78.46
2023-02-05T23:25:51.918Z,78.46
2023-02-05T23:30:53.692Z,78.04
2023-02-05T23:35:55.740Z,78.35
2023-02-05T23:40:58.372Z,78.64
2023-02-05T23:46:00.821Z,78.27
2023-02-05T23:51:02.935Z,77.63
2023-02-05T23:56:04.782Z,78.32
